Ensenada, Mexico

8:59 AM PST on February 10, 2016 (GMT -0800)
Gringo Gulch | | Change Station
CLOSE
Current Station
Personal Weather Station
Location: ENSENADA, Baja California
Elevation: 423 ft
Nearby Weather Stations

Elev 423 ft 31.87 °N, 116.64 °W | Updated 4 minutes ago

Clear
Clear
69.4 °F
Feels Like 69.4 °F
N
4.0
Wind Variable Wind from SSW
Gusts 4.0 mph

Today
High -- | Low -- °F
--% Chance of Precip.
Yesterday
High -- | Low -- °F
Precip. -- in
Pressure 30.14 in
Visibility 10.0 miles
Clouds Clear
Dew Point 44 °F
Humidity 40%
Rainfall 0.00 in
Snow Depth Not available.
6:33 AM 5:28 PM
Waxing Crescent, 6% visible
METAR KSDM 101653Z 15011KT 10SM CLR 22/M03 A3015 RMK AO2 SLP206 T02221028
Pressure 30.14 in
Visibility 10.0 miles
Clouds Clear
Dew Point 44 °F
Humidity 40%
Rainfall 0.00 in
Snow Depth Not available.
6:33 AM 5:28 PM
Waxing Crescent, 6% visible
METAR KSDM 101653Z 15011KT 10SM CLR 22/M03 A3015 RMK AO2 SLP206 T02221028

10-Day Weather Forecast

Almanac

Astronomy

Feb. 10, 2016 Rise Set
Actual Time
Civil Twilight
Nautical Twilight
Astronomical Twilight
Moon
Length of Visible Light
Length of Day
Tomorrow will be .
, % of the Moon is Illuminated

Today's Extremes

Country Highs Country Lows

Community

WunderPhotos

Upload Photos

1,891,891 photos uploaded!

WunderBlog® & News

Nearby

Air Quality

  Air Quality AQ Index Pollutant
Not available.

Snow Depth

Station Depth Elevation

Earthquake Activity

City Distance Mag. Time & Date
Minimum magnitude displayed is 2.5.

Coastal Water Temperatures

Place Temperature

Stations

Nearby Weather Stations

Station Location Temp. Windchill Dew Point Humidity Wind Precip. Elev Updated Type